joomla templates top joomla templates template joomla

King Air Abend

Notam

C3641/14 - CUSTOMS AVBL PPR, TEL 0049 9561 92098. 13 NOV 14:46 2014 UNTIL PERM. CREATED: 13 NOV 14:47 2014

Aerodrome Terminal Information Service (ATIS) Coburg

METAR
EDQC 231850Z AUTO 07006KT 030V110 CAVOK 20/// Q1018=

METAR und TAF der Umgebung

[Quelle: ADDS]
METAR
EDDF 231850Z 05008KT 010V070 9999 VCSH FEW022 BKN024CB 22/19 Q1017 TEMPO TSRA =
EDDN 231850Z VRB02KT 9999 FEW033 SCT170 BKN280 23/19 Q1017 NOSIG =
EDDE 231850Z 24005KT CAVOK 19/18 Q1018 NOSIG =
TAF
EDDF 231700Z 2318/2424 03006KT 9999 SCT035 PROB30 TEMPO 2318/2320 -TSRA BKN025CB PROB30 TEMPO 2402/2407 3000 BR BKN008 PROB30 TEMPO 2415/2421 SHRA BKN020CB =
EDDN 231700Z 2318/2418 VRB03KT 9999 SCT030 PROB30 TEMPO 2318/2320 SHRA BKN030CB TEMPO 2400/2405 4000 BR BKN008 TEMPO 2405/2408 BKN012 BECMG 2407/2409 31005KT PROB30 TEMPO 2413/2417 TSRA BKN035CB =
EDDE 231700Z 2318/2418 20007KT CAVOK BECMG 2318/2321 VRB03KT BECMG 2407/2409 05006KT =
SR / SS: 03:35 / 19:12 UTC (EDQC 2016-07-23)

Verkehrslandeplatz Coburg Brandensteinsebene
Tower
Zur Brandensteinsebene
96450 Coburg

AeroClub Logo 200px

Aero Club Coburg e. V.
Postfach 11 09
96401 Coburg